Time;durP1;ratioP1;P1;durP2;ratioP2;P2;SDS_P1;SDS_P2;PMS_P1;PMS_P2;Temp;Humidity;BMP_temperature;BMP_pressure;BME280_temperature;BME280_humidity;BME280_pressure;Samples;Min_cycle;Max_cycle;Signal;HPM_P1;HPM_P2
2024/04/15 00:00:37;;;;;;;;;;;;;;;;;;5441528;26;19936;-65
2024/04/15 00:03:02;;;;;;;;;;;;;;;;;;5444301;26;19935;-65
2024/04/15 00:05:27;;;;;;;;;;;;;;;;;;5445186;26;20254;-65
2024/04/15 00:07:52;;;;;;;;;;;;;;;;;;5443501;26;20369;-65
2024/04/15 00:10:17;;;;;;;;;;;;;;;;;;5419363;26;19929;-65
2024/04/15 00:12:42;;;;;;;;;;;;;;;;;;5442498;26;20376;-65
2024/04/15 00:15:07;;;;;;;;;;;;;;;;;;5441401;26;19928;-65
2024/04/15 00:17:32;;;;;;;;;;;;;;;;;;5434739;26;19936;-65
2024/04/15 00:19:58;;;;;;;;;;;;;;;;;;5435260;26;19939;-65
2024/04/15 00:22:23;;;;;;;;;;;;;;;;;;5445798;26;19974;-65
2024/04/15 00:24:48;;;;;;;;;;;;;;;;;;5445774;26;19929;-65
2024/04/15 00:27:13;;;;;;;;;;;;;;;;;;5443120;26;19982;-65
2024/04/15 00:29:38;;;;;;;;;;;;;;;;;;5434722;26;19940;-64
2024/04/15 00:32:03;;;;;;;;;;;;;;;;;;5443276;26;20378;-65
2024/04/15 00:34:28;;;;;;;;;;;;;;;;;;5441404;26;20339;-64
2024/04/15 00:36:53;;;;;;;;;;;;;;;;;;5443503;26;19928;-64
2024/04/15 00:39:18;;;;;;;;;;;;;;;;;;5433662;26;19929;-64
2024/04/15 00:41:43;;;;;;;;;;;;;;;;;;5418615;26;20435;-64
2024/04/15 00:44:09;;;;;;;;;;;;;;;;;;5426222;26;19928;-65
2024/04/15 00:46:34;;;;;;;;;;;;;;;;;;5443109;26;19936;-64
2024/04/15 00:48:59;;;;;;;;;;;;;;;;;;5435134;26;19937;-64
2024/04/15 00:51:24;;;;;;;;;;;;;;;;;;5444485;26;19940;-65
2024/04/15 00:53:49;;;;;;;;;;;;;;;;;;5444635;26;20005;-64
2024/04/15 00:56:14;;;;;;;;;;;;;;;;;;5440205;26;20443;-65
2024/04/15 00:58:39;;;;;;;;;;;;;;;;;;5444842;26;19997;-65
2024/04/15 01:01:04;;;;;;;;;;;;;;;;;;5423462;26;19965;-65
2024/04/15 01:03:29;;;;;;;;;;;;;;;;;;5433182;26;19928;-65
2024/04/15 01:05:54;;;;;;;;;;;;;;;;;;5434230;26;19936;-65
2024/04/15 01:08:20;;;;;;;;;;;;;;;;;;5434128;26;19928;-65
2024/04/15 01:10:45;;;;;;;;;;;;;;;;;;5437491;26;19940;-64
2024/04/15 01:13:10;;;;;;;;;;;;;;;;;;5433891;26;19940;-64
2024/04/15 01:15:35;;;;;;;;;;;;;;;;;;5425286;26;20496;-64
2024/04/15 01:18:01;;;;;;;;;;;;;;;;;;5443493;26;19928;-65
2024/04/15 01:20:26;;;;;;;;;;;;;;;;;;5443822;26;19997;-64
2024/04/15 01:22:51;;;;;;;;;;;;;;;;;;5436700;26;19972;-64
2024/04/15 01:25:16;;;;;;;;;;;;;;;;;;5435170;26;19937;-65
2024/04/15 01:27:41;;;;;;;;;;;;;;;;;;5443685;26;19936;-65
2024/04/15 01:30:06;;;;;;;;;;;;;;;;;;5442735;26;19948;-65
2024/04/15 01:32:32;;;;;;;;;;;;;;;;;;5433046;26;19940;-64
2024/04/15 01:34:57;;;;;;;;;;;;;;;;;;5438066;26;20023;-65
2024/04/15 01:37:22;;;;;;;;;;;;;;;;;;5434318;26;20331;-65
2024/04/15 01:39:47;;;;;;;;;;;;;;;;;;5442532;26;19974;-65
2024/04/15 01:42:12;;;;;;;;;;;;;;;;;;5442271;26;19965;-65
2024/04/15 01:44:37;;;;;;;;;;;;;;;;;;5430409;26;19929;-65
2024/04/15 01:47:02;;;;;;;;;;;;;;;;;;5433513;26;19985;-65
2024/04/15 01:49:27;;;;;;;;;;;;;;;;;;5438103;26;19929;-65
2024/04/15 01:51:52;;;;;;;;;;;;;;;;;;5440148;26;19937;-65
2024/04/15 01:54:17;;;;;;;;;;;;;;;;;;5441467;26;19936;-65
2024/04/15 01:56:42;;;;;;;;;;;;;;;;;;5434374;26;19937;-65
2024/04/15 01:59:07;;;;;;;;;;;;;;;;;;5439184;26;19935;-68
2024/04/15 02:01:33;;;;;;;;;;;;;;;;;;5430051;26;19967;-65
2024/04/15 02:03:58;;;;;;;;;;;;;;;;;;5429734;26;19929;-65
2024/04/15 02:06:23;;;;;;;;;;;;;;;;;;5421574;26;20354;-65
2024/04/15 02:08:48;;;;;;;;;;;;;;;;;;5442960;26;19936;-65
2024/04/15 02:11:13;;;;;;;;;;;;;;;;;;5440665;26;19928;-65
2024/04/15 02:13:39;;;;;;;;;;;;;;;;;;5444005;26;19928;-65
2024/04/15 02:16:04;;;;;;;;;;;;;;;;;;5441477;26;19929;-65
2024/04/15 02:18:29;;;;;;;;;;;;;;;;;;5444316;26;19935;-65
2024/04/15 02:20:54;;;;;;;;;;;;;;;;;;5442794;26;20173;-65
2024/04/15 02:23:19;;;;;;;;;;;;;;;;;;5443704;26;19939;-65
2024/04/15 02:25:44;;;;;;;;;;;;;;;;;;5432293;26;19941;-65
2024/04/15 02:28:09;;;;;;;;;;;;;;;;;;5422801;26;19937;-65
2024/04/15 02:30:34;;;;;;;;;;;;;;;;;;5440205;26;20073;-65
2024/04/15 02:32:59;;;;;;;;;;;;;;;;;;5442990;26;19952;-65
2024/04/15 02:35:24;;;;;;;;;;;;;;;;;;5440321;26;20365;-65
2024/04/15 02:37:49;;;;;;;;;;;;;;;;;;5443338;26;19928;-65
2024/04/15 02:40:14;;;;;;;;;;;;;;;;;;5441106;26;19993;-65
2024/04/15 02:42:41;;;;;;;;;;;;;;;;;;5443405;26;19941;-65
2024/04/15 02:45:06;;;;;;;;;;;;;;;;;;5440844;26;19941;-65
2024/04/15 02:47:31;;;;;;;;;;;;;;;;;;5420404;26;19928;-65
2024/04/15 02:49:56;;;;;;;;;;;;;;;;;;5430424;26;19932;-65
2024/04/15 02:52:21;;;;;;;;;;;;;;;;;;5437030;26;19944;-65
2024/04/15 02:54:46;;;;;;;;;;;;;;;;;;5419046;26;19939;-65
2024/04/15 02:57:11;;;;;;;;;;;;;;;;;;5428378;26;20396;-65
2024/04/15 02:59:36;;;;;;;;;;;;;;;;;;5431237;26;19929;-65
2024/04/15 03:02:02;;;;;;;;;;;;;;;;;;5439157;26;19941;-65
2024/04/15 03:04:27;;;;;;;;;;;;;;;;;;5439400;26;20361;-65
2024/04/15 03:06:52;;;;;;;;;;;;;;;;;;5429578;26;19997;-64
2024/04/15 03:09:18;;;;;;;;;;;;;;;;;;5445188;25;19993;-65
2024/04/15 03:11:43;;;;;;;;;;;;;;;;;;5464257;25;19935;-65
2024/04/15 03:14:08;;;;;;;;;;;;;;;;;;5449744;26;19928;-65
2024/04/15 03:16:33;;;;;;;;;;;;;;;;;;5470621;26;19939;-65
2024/04/15 03:18:58;;;;;;;;;;;;;;;;;;5446029;26;19932;-65
2024/04/15 03:21:23;;;;;;;;;;;;;;;;;;5449150;26;20422;-65
2024/04/15 03:23:48;;;;;;;;;;;;;;;;;;5428925;26;19998;-65
2024/04/15 03:26:13;;;;;;;;;;;;;;;;;;5438760;25;20228;-65
2024/04/15 03:28:38;;;;;;;;;;;;;;;;;;5455368;26;19928;-65
2024/04/15 03:31:04;;;;;;;;;;;;;;;;;;5445010;26;19932;-65
2024/04/15 03:33:29;;;;;;;;;;;;;;;;;;5442022;26;19928;-65
2024/04/15 03:35:54;;;;;;;;;;;;;;;;;;5434554;26;19997;-65
2024/04/15 03:38:19;;;;;;;;;;;;;;;;;;5440103;26;19940;-65
2024/04/15 03:40:44;;;;;;;;;;;;;;;;;;5432782;26;19929;-65
2024/04/15 03:43:09;;;;;;;;;;;;;;;;;;5438260;26;19943;-65
2024/04/15 03:45:34;;;;;;;;;;;;;;;;;;5427900;26;19935;-65
2024/04/15 03:47:59;;;;;;;;;;;;;;;;;;5428363;26;19988;-65
2024/04/15 03:50:24;;;;;;;;;;;;;;;;;;5429177;26;21953;-65
2024/04/15 03:52:49;;;;;;;;;;;;;;;;;;5420572;26;19940;-67
2024/04/15 03:55:14;;;;;;;;;;;;;;;;;;5436006;26;19936;-66
2024/04/15 03:57:40;;;;;;;;;;;;;;;;;;5433568;26;19929;-65
2024/04/15 04:00:05;;;;;;;;;;;;;;;;;;5445897;25;19935;-65
2024/04/15 04:02:30;;;;;;;;;;;;;;;;;;5473712;26;19935;-65
2024/04/15 04:04:55;;;;;;;;;;;;;;;;;;5427025;26;20314;-65
2024/04/15 04:07:21;;;;;;;;;;;;;;;;;;5427472;26;19928;-65
2024/04/15 04:09:47;;;;;;;;;;;;;;;;;;5432606;26;20205;-64
2024/04/15 04:12:12;;;;;;;;;;;;;;;;;;5427547;26;20276;-65
2024/04/15 04:14:37;;;;;;;;;;;;;;;;;;5438227;26;19935;-64
2024/04/15 04:17:02;;;;;;;;;;;;;;;;;;5436751;26;19935;-65
2024/04/15 04:19:27;;;;;;;;;;;;;;;;;;5415377;26;19936;-65
2024/04/15 04:21:52;;;;;;;;;;;;;;;;;;5447390;26;20419;-65
2024/04/15 04:24:17;;;;;;;;;;;;;;;;;;5444488;26;20250;-65
2024/04/15 04:26:43;;;;;;;;;;;;;;;;;;5436583;26;19933;-65
2024/04/15 04:29:08;;;;;;;;;;;;;;;;;;5432062;26;19939;-65
2024/04/15 04:31:33;;;;;;;;;;;;;;;;;;5441206;26;19952;-65
2024/04/15 04:33:58;;;;;;;;;;;;;;;;;;5433541;26;19928;-65
2024/04/15 04:36:23;;;;;;;;;;;;;;;;;;5443195;26;19936;-65
2024/04/15 04:38:49;;;;;;;;;;;;;;;;;;5477343;26;20352;-65
2024/04/15 04:41:14;;;;;;;;;;;;;;;;;;5479810;25;19928;-65
2024/04/15 04:43:39;;;;;;;;;;;;;;;;;;5454557;25;19943;-65
2024/04/15 04:46:04;;;;;;;;;;;;;;;;;;5474298;26;19928;-65
2024/04/15 04:48:29;;;;;;;;;;;;;;;;;;5468907;26;19933;-65
2024/04/15 04:50:54;;;;;;;;;;;;;;;;;;5468511;26;20317;-65
2024/04/15 04:53:20;;;;;;;;;;;;;;;;;;5469512;25;19928;-65
2024/04/15 04:55:45;;;;;;;;;;;;;;;;;;5474777;25;19928;-65
2024/04/15 04:58:10;;;;;;;;;;;;;;;;;;5478857;25;19997;-66
2024/04/15 05:00:35;;;;;;;;;;;;;;;;;;5472458;26;20284;-65
2024/04/15 05:03:00;;;;;;;;;;;;;;;;;;5480733;25;19935;-65
2024/04/15 05:05:25;;;;;;;;;;;;;;;;;;5456546;26;20381;-65
2024/04/15 05:07:50;;;;;;;;;;;;;;;;;;5443847;26;19929;-65
2024/04/15 05:10:15;;;;;;;;;;;;;;;;;;5477722;26;19932;-65
2024/04/15 05:12:40;;;;;;;;;;;;;;;;;;5479951;25;19960;-65
2024/04/15 05:15:05;;;;;;;;;;;;;;;;;;5480499;25;19939;-65
2024/04/15 05:17:30;;;;;;;;;;;;;;;;;;5474833;25;20407;-65
2024/04/15 05:19:56;;;;;;;;;;;;;;;;;;5480658;26;19927;-65
2024/04/15 05:22:21;;;;;;;;;;;;;;;;;;5479029;25;19931;-65
2024/04/15 05:24:46;;;;;;;;;;;;;;;;;;5462322;26;19985;-65
2024/04/15 05:27:11;;;;;;;;;;;;;;;;;;5474965;25;19928;-65
2024/04/15 05:29:37;;;;;;;;;;;;;;;;;;5476887;26;20467;-65
2024/04/15 05:32:02;;;;;;;;;;;;;;;;;;5477579;25;19935;-65
2024/04/15 05:34:27;;;;;;;;;;;;;;;;;;5479393;25;19932;-65
2024/04/15 05:36:52;;;;;;;;;;;;;;;;;;5479088;26;20352;-65
2024/04/15 05:39:17;;;;;;;;;;;;;;;;;;5470603;25;20393;-65
2024/04/15 05:41:42;;;;;;;;;;;;;;;;;;5465671;26;19928;-65
2024/04/15 05:44:07;;;;;;;;;;;;;;;;;;5475303;25;19935;-65
2024/04/15 05:46:32;;;;;;;;;;;;;;;;;;5472020;25;19928;-65
2024/04/15 05:48:57;;;;;;;;;;;;;;;;;;5472513;25;20293;-64
2024/04/15 05:51:22;;;;;;;;;;;;;;;;;;5478780;25;20340;-64
2024/04/15 05:53:47;;;;;;;;;;;;;;;;;;5478850;25;19928;-65
2024/04/15 05:56:12;;;;;;;;;;;;;;;;;;5474629;25;19942;-65
2024/04/15 05:58:38;;;;;;;;;;;;;;;;;;5464058;26;19935;-65
2024/04/15 06:01:03;;;;;;;;;;;;;;;;;;5479502;25;20250;-65
2024/04/15 06:03:28;;;;;;;;;;;;;;;;;;5480385;25;20375;-65
2024/04/15 06:05:53;;;;;;;;;;;;;;;;;;5469010;26;19944;-65
2024/04/15 06:08:18;;;;;;;;;;;;;;;;;;5489375;25;19934;-65
2024/04/15 06:10:43;;;;;;;;;;;;;;;;;;5490801;25;20004;-64
2024/04/15 06:13:08;;;;;;;;;;;;;;;;;;5452924;26;19940;-64
2024/04/15 06:15:37;;;;;;;;;;;;;;;;;;5474142;26;19939;-65
2024/04/15 06:18:02;;;;;;;;;;;;;;;;;;5465511;25;20364;-64
2024/04/15 06:20:27;;;;;;;;;;;;;;;;;;5468306;25;20345;-66
2024/04/15 06:22:52;;;;;;;;;;;;;;;;;;5479781;25;19927;-65
2024/04/15 06:25:17;;;;;;;;;;;;;;;;;;5478056;25;19935;-65
2024/04/15 06:27:42;;;;;;;;;;;;;;;;;;5468113;25;20260;-65
2024/04/15 06:30:08;;;;;;;;;;;;;;;;;;5441541;26;20273;-65
2024/04/15 06:32:33;;;;;;;;;;;;;;;;;;5458388;26;19928;-65
2024/04/15 06:34:58;;;;;;;;;;;;;;;;;;5459675;26;19947;-66
2024/04/15 06:37:24;;;;;;;;;;;;;;;;;;5464047;26;19933;-66
2024/04/15 06:39:49;;;;;;;;;;;;;;;;;;5465732;26;19935;-66
2024/04/15 06:42:14;;;;;;;;;;;;;;;;;;5470176;25;19929;-66
2024/04/15 06:44:39;;;;;;;;;;;;;;;;;;5459193;26;19929;-66
2024/04/15 06:47:04;;;;;;;;;;;;;;;;;;5450230;26;21330;-65
2024/04/15 06:49:29;;;;;;;;;;;;;;;;;;5473229;26;19928;-66
2024/04/15 06:51:54;;;;;;;;;;;;;;;;;;5463497;25;20280;-66
2024/04/15 06:54:19;;;;;;;;;;;;;;;;;;5464352;26;19943;-67
2024/04/15 06:56:44;;;;;;;;;;;;;;;;;;5465241;25;19927;-66
2024/04/15 06:59:09;;;;;;;;;;;;;;;;;;5464208;25;20234;-66
2024/04/15 07:01:34;;;;;;;;;;;;;;;;;;5437548;26;19935;-65
2024/04/15 07:04:00;;;;;;;;;;;;;;;;;;5428247;26;19941;-65
2024/04/15 07:06:25;;;;;;;;;;;;;;;;;;5422849;25;19956;-66
2024/04/15 07:08:50;;;;;;;;;;;;;;;;;;5450299;26;20375;-66
2024/04/15 07:11:15;;;;;;;;;;;;;;;;;;5450217;26;19935;-65
2024/04/15 07:13:40;;;;;;;;;;;;;;;;;;5466820;26;19929;-67
2024/04/15 07:16:05;;;;;;;;;;;;;;;;;;5473981;25;20304;-66
2024/04/15 07:18:30;;;;;;;;;;;;;;;;;;5463750;26;19928;-66
2024/04/15 07:20:55;;;;;;;;;;;;;;;;;;5472525;25;19979;-66
2024/04/15 07:23:20;;;;;;;;;;;;;;;;;;5478646;25;19928;-67
2024/04/15 07:25:45;;;;;;;;;;;;;;;;;;5466537;26;20345;-66
2024/04/15 07:28:11;;;;;;;;;;;;;;;;;;5455412;25;19928;-67
2024/04/15 07:30:36;;;;;;;;;;;;;;;;;;5471502;25;19940;-66
2024/04/15 07:33:01;;;;;;;;;;;;;;;;;;5468375;25;19928;-66
2024/04/15 07:35:26;;;;;;;;;;;;;;;;;;5479191;25;19939;-67
2024/04/15 07:37:51;;;;;;;;;;;;;;;;;;5469251;26;19932;-66
2024/04/15 07:40:16;;;;;;;;;;;;;;;;;;5462541;25;19939;-67
2024/04/15 07:42:41;;;;;;;;;;;;;;;;;;5457218;26;19928;-66
2024/04/15 07:45:06;;;;;;;;;;;;;;;;;;5456856;25;20345;-66
2024/04/15 07:47:31;;;;;;;;;;;;;;;;;;5477668;26;19968;-67
2024/04/15 07:49:56;;;;;;;;;;;;;;;;;;5472712;25;19946;-67
2024/04/15 07:52:21;;;;;;;;;;;;;;;;;;5468443;25;19932;-66
2024/04/15 07:54:47;;;;;;;;;;;;;;;;;;5461398;26;19943;-67
2024/04/15 07:57:12;;;;;;;;;;;;;;;;;;5457068;25;20018;-68
2024/04/15 07:59:37;;;;;;;;;;;;;;;;;;5461029;25;19935;-66
2024/04/15 08:02:02;;;;;;;;;;;;;;;;;;5470221;25;20413;-67
2024/04/15 08:04:27;;;;;;;;;;;;;;;;;;5464196;25;19997;-68
2024/04/15 08:06:52;;;;;;;;;;;;;;;;;;5468633;26;19951;-67
2024/04/15 08:09:17;;;;;;;;;;;;;;;;;;5468076;25;20004;-67
2024/04/15 08:11:43;;;;;;;;;;;;;;;;;;5480885;26;20245;-66
2024/04/15 08:14:08;;;;;;;;;;;;;;;;;;5485712;25;19927;-67
2024/04/15 08:16:33;;;;;;;;;;;;;;;;;;5476716;25;19935;-67
2024/04/15 08:18:58;;;;;;;;;;;;;;;;;;5452249;26;19964;-66
2024/04/15 08:21:23;;;;;;;;;;;;;;;;;;5470360;26;20364;-67
2024/04/15 08:23:49;;;;;;;;;;;;;;;;;;5483039;26;20194;-67
2024/04/15 08:26:14;;;;;;;;;;;;;;;;;;5489301;25;19928;-67
2024/04/15 08:28:39;;;;;;;;;;;;;;;;;;5482482;25;19993;-67
2024/04/15 08:31:04;;;;;;;;;;;;;;;;;;5475208;25;19964;-67
2024/04/15 08:33:29;;;;;;;;;;;;;;;;;;5460510;26;20072;-67
2024/04/15 08:35:54;;;;;;;;;;;;;;;;;;5469389;26;19940;-68
2024/04/15 08:38:19;;;;;;;;;;;;;;;;;;5477115;26;20339;-68
2024/04/15 08:40:44;;;;;;;;;;;;;;;;;;5480679;25;19961;-67
2024/04/15 08:43:09;;;;;;;;;;;;;;;;;;5484447;26;19934;-67
2024/04/15 08:45:35;;;;;;;;;;;;;;;;;;5490436;26;19935;-68
2024/04/15 08:48:00;;;;;;;;;;;;;;;;;;5468691;26;20016;-68
2024/04/15 08:50:25;;;;;;;;;;;;;;;;;;5456338;26;20370;-68
2024/04/15 08:52:50;;;;;;;;;;;;;;;;;;5482780;25;19932;-67
2024/04/15 08:55:15;;;;;;;;;;;;;;;;;;5485457;26;19934;-67
2024/04/15 08:57:40;;;;;;;;;;;;;;;;;;5492894;25;20396;-68
2024/04/15 09:00:05;;;;;;;;;;;;;;;;;;5453969;25;19936;-67
2024/04/15 09:02:31;;;;;;;;;;;;;;;;;;5465547;26;20503;-68
2024/04/15 09:04:56;;;;;;;;;;;;;;;;;;5469292;25;19939;-68
2024/04/15 09:07:21;;;;;;;;;;;;;;;;;;5481057;26;19939;-70
2024/04/15 09:09:46;;;;;;;;;;;;;;;;;;5493373;26;19936;-67
2024/04/15 09:12:11;;;;;;;;;;;;;;;;;;5493901;25;19998;-68
2024/04/15 09:14:36;;;;;;;;;;;;;;;;;;5476799;26;19935;-67
2024/04/15 09:17:01;;;;;;;;;;;;;;;;;;5462080;26;20268;-68
2024/04/15 09:19:26;;;;;;;;;;;;;;;;;;5477047;26;19932;-68
2024/04/15 09:21:51;;;;;;;;;;;;;;;;;;5474714;25;22074;-67
2024/04/15 09:24:17;;;;;;;;;;;;;;;;;;5482401;25;19935;-68
2024/04/15 09:26:42;;;;;;;;;;;;;;;23.29;nan;99835.00;5470271;26;19928;-70
2024/04/15 09:29:07;;;;;;;;;;;;;;;;;;5474463;25;19988;-68
2024/04/15 09:31:32;;;;;;;;;;;;;;;;;;5477018;25;19935;-68
2024/04/15 09:33:58;;;;;;;;;;;;;;;23.90;nan;99828.59;5466662;26;20750;-68
2024/04/15 09:36:23;;;;;;;;;;;;;;;24.29;nan;99821.06;5477860;25;19931;-68
2024/04/15 09:38:48;;;;;;;;;;;;;;;24.02;nan;99825.72;5491824;26;19932;-68
2024/04/15 09:41:14;;;;;;;;;;;;;;;;;;5487958;25;19928;-67
2024/04/15 09:43:39;;;;;;;;;;;;;;;23.25;nan;99822.25;5478522;25;19935;-68
2024/04/15 09:46:04;;;;;;;;;;;;;;;;;;5476259;26;20479;-68
2024/04/15 09:48:29;;;;;;;;;;;;;;;23.80;nan;99812.31;5454747;26;19929;-68
2024/04/15 09:50:54;;;;;;;;;;;;;;;;;;5441841;26;19939;-69
2024/04/15 09:53:40;;;;;;;;;;;;;;;24.73;nan;99804.59;5434571;26;19928;-69
2024/04/15 09:56:10;;;;;;;;;;;;;;;25.12;nan;99809.63;5426933;26;19928;-68
2024/04/15 09:58:36;;;;;;;;;;;;;;;23.83;nan;99793.69;5435083;26;20942;-69
2024/04/15 10:01:02;;;;;;;;;;;;;;;;;;5447890;26;19947;-69
2024/04/15 10:03:27;;;;;;;;;;;;;;;;;;5462881;25;20001;-68
2024/04/15 10:05:52;;;;;;;;;;;;;;;;;;5482524;26;19928;-67
2024/04/15 10:08:17;;;;;;;;;;;;;;;;;;5489326;25;19932;-69
2024/04/15 10:10:42;;;;;;;;;;;;;;;;;;5463177;26;19962;-66
2024/04/15 10:13:07;;;;;;;;;;;;;;;24.04;nan;99748.78;5476984;25;19940;-68
2024/04/15 10:15:33;;;;;;;;;;;;;;;24.37;nan;99752.22;5475776;26;19939;-67
2024/04/15 10:17:58;;;;;;;;;;;;;;;24.94;nan;99756.00;5481405;25;19928;-67
2024/04/15 10:20:24;;;;;;;;;;;;;;;;;;5480666;25;19947;-67
2024/04/15 10:22:55;;;;;;;;;;;;;;;24.07;nan;99747.44;5493893;25;19929;-67
2024/04/15 10:25:20;;;;;;;;;;;;;;;23.44;nan;99725.59;5513972;25;19935;-67
2024/04/15 10:27:46;;;;;;;;;;;;;;;23.27;nan;99723.03;5480342;25;19936;-66
2024/04/15 10:30:16;;;;;;;;;;;;;;;23.26;nan;99722.22;5473779;25;19939;-68
2024/04/15 10:32:51;;;;;;;;;;;;;;;23.28;nan;99709.25;5464904;25;19935;-67
2024/04/15 10:35:16;;;;;;;;;;;;;;;;;;5473351;26;20366;-67
2024/04/15 10:37:41;;;;;;;;;;;;;;;;;;5491310;26;19934;-67
2024/04/15 10:40:06;;;;;;;;;;;;;;;;;;5492135;25;19996;-68
2024/04/15 10:42:31;;;;;;;;;;;;;;;25.22;nan;99719.59;5474346;25;20549;-67
2024/04/15 10:44:58;;;;;;;;;;;;;;;26.02;nan;99727.19;5476650;25;19990;-66
2024/04/15 10:47:23;;;;;;;;;;;;;;;26.03;nan;99724.22;5480852;25;19939;-68
2024/04/15 10:49:48;;;;;;;;;;;;;;;26.64;nan;99727.84;5463894;26;19928;-66
2024/04/15 10:52:13;;;;;;;;;;;;;;;27.32;nan;99733.47;5466775;25;19955;-64
2024/04/15 10:54:39;;;;;;;;;;;;;;;27.28;nan;99732.41;5476301;25;19939;-67
2024/04/15 10:57:04;;;;;;;;;;;;;;;25.70;nan;99719.34;5479230;26;19927;-66
2024/04/15 10:59:29;;;;;;;;;;;;;;;;;;5467386;25;20265;-67
2024/04/15 11:01:55;;;;;;;;;;;;;;;26.21;nan;99720.09;5467523;26;19935;-66
2024/04/15 11:04:20;;;;;;;;;;;;;;;26.32;nan;99704.63;5477368;25;19971;-67
2024/04/15 11:06:47;;;;;;;;;;;;;;;27.25;nan;99699.59;5478467;25;19928;-67
2024/04/15 11:09:12;;;;;;;;;;;;;;;27.16;nan;99691.19;5494004;25;20303;-67
2024/04/15 11:11:38;;;;;;;;;;;;;;;26.32;nan;99698.41;5480255;25;19935;-67
2024/04/15 11:14:03;;;;;;;;;;;;;;;26.30;nan;99670.75;5468915;25;19931;-68
2024/04/15 11:16:28;;;;;;;;;;;;;;;25.67;nan;99660.31;5451880;26;19938;-67
2024/04/15 11:19:04;;;;;;;;;;;;;;;26.57;nan;99662.25;5470810;26;19934;-67
2024/04/15 11:21:29;;;;;;;;;;;;;;;;;;5472773;25;19936;-67
2024/04/15 11:23:54;;;;;;;;;;;;;;;26.51;nan;99653.31;5466932;25;19991;-67
2024/04/15 11:26:19;;;;;;;;;;;;;;;25.46;nan;99649.50;5481522;25;19928;-66
2024/04/15 11:28:44;;;;;;;;;;;;;;;24.20;nan;99616.53;5458386;26;19936;-67
2024/04/15 11:31:10;;;;;;;;;;;;;;;;;;5464129;25;19928;-67
2024/04/15 11:33:35;;;;;;;;;;;;;;;;;;5465110;26;19928;-67
2024/04/15 11:36:00;;;;;;;;;;;;;;;;;;5494145;25;20297;-66
2024/04/15 11:38:26;;;;;;;;;;;;;;;;;;5474858;25;19947;-66
2024/04/15 11:40:51;;;;;;;;;;;;;;;;;;5471562;26;19978;-68
2024/04/15 11:43:16;;;;;;;;;;;;;;;;;;5474140;25;19940;-67
2024/04/15 11:45:41;;;;;;;;;;;;;;;;;;5475684;25;19967;-68
2024/04/15 11:48:07;;;;;;;;;;;;;;;22.73;nan;99580.09;5476292;25;19928;-65
2024/04/15 11:50:32;;;;;;;;;;;;;;;;;;5485547;25;20261;-66
2024/04/15 11:52:57;;;;;;;;;;;;;;;;;;5472196;26;19929;-66
2024/04/15 11:55:23;;;;;;;;;;;;;;;23.70;nan;99561.97;5487707;25;19935;-66
2024/04/15 11:57:48;;;;;;;;;;;;;;;24.66;nan;99576.13;5460023;26;19943;-65
2024/04/15 12:00:14;;;;;;;;;;;;;;;24.14;nan;99557.03;5495462;25;19997;-66
2024/04/15 12:02:39;;;;;;;;;;;;;;;;;;5491076;25;19927;-65
2024/04/15 12:05:04;;;;;;;;;;;;;;;;;;5479839;26;20486;-65
2024/04/15 12:07:29;;;;;;;;;;;;;;;;;;5474866;25;19935;-64
2024/04/15 12:09:54;;;;;;;;;;;;;;;;;;5471873;25;19936;-65
2024/04/15 12:12:19;;;;;;;;;;;;;;;;;;5481970;25;19931;-64
2024/04/15 12:14:44;;;;;;;;;;;;;;;;;;5468419;25;19928;-65
2024/04/15 12:17:09;;;;;;;;;;;;;;;;;;5469434;26;20708;-65
2024/04/15 12:19:34;;;;;;;;;;;;;;;;;;5463289;26;20261;-65
2024/04/15 12:22:00;;;;;;;;;;;;;;;;;;5471173;25;19932;-64
2024/04/15 12:24:27;;;;;;;;;;;;;;;;;;5473911;25;19929;-65
2024/04/15 12:26:52;;;;;;;;;;;;;;;;;;5467804;26;19928;-64
2024/04/15 12:29:17;;;;;;;;;;;;;;;;;;5475643;25;19928;-65
2024/04/15 12:31:42;;;;;;;;;;;;;;;;;;5477125;25;19935;-65
2024/04/15 12:34:07;;;;;;;;;;;;;;;;;;5446605;26;20379;-64
2024/04/15 12:36:32;;;;;;;;;;;;;;;;;;5470530;26;20353;-65
2024/04/15 12:38:58;;;;;;;;;;;;;;;;;;5467398;26;19928;-65
2024/04/15 12:41:23;;;;;;;;;;;;;;;;;;5475823;26;19928;-66
2024/04/15 12:43:48;;;;;;;;;;;;;;;;;;5451197;26;19932;-66
2024/04/15 12:46:13;;;;;;;;;;;;;;;;;;5463299;26;19932;-65
2024/04/15 12:48:38;;;;;;;;;;;;;;;;;;5454083;26;20331;-65
2024/04/15 12:51:04;;;;;;;;;;;;;;;;;;5489778;26;19934;-65
2024/04/15 12:53:29;;;;;;;;;;;;;;;;;;5457852;26;19997;-65
2024/04/15 12:55:54;;;;;;;;;;;;;;;;;;5468658;26;19936;-66
2024/04/15 12:58:19;;;;;;;;;;;;;;;;;;5438502;26;20625;-66
2024/04/15 13:00:44;;;;;;;;;;;;;;;;;;5473914;26;20538;-66
2024/04/15 13:03:09;;;;;;;;;;;;;;;;;;5473052;26;19943;-67
2024/04/15 13:05:34;;;;;;;;;;;;;;;;;;5450108;26;19936;-68
2024/04/15 13:07:59;;;;;;;;;;;;;;;;;;5443209;26;20109;-67
2024/04/15 13:10:24;;;;;;;;;;;;;;;;;;5480281;25;19927;-66
2024/04/15 13:12:49;;;;;;;;;;;;;;;;;;5469457;26;19964;-67
2024/04/15 13:15:14;;;;;;;;;;;;;;;;;;5460433;26;19996;-66
2024/04/15 13:17:40;;;;;;;;;;;;;;;;;;5443315;26;20244;-66
2024/04/15 13:20:06;;;;;;;;;;;;;;;;;;5480995;25;19927;-66
2024/04/15 13:22:31;;;;;;;;;;;;;;;;;;5467373;25;19934;-66
2024/04/15 13:24:56;;;;;;;;;;;;;;;;;;5492786;25;19936;-67
2024/04/15 13:27:21;;;;;;;;;;;;;;;;;;5461805;25;20391;-67
2024/04/15 13:29:46;;;;;;;;;;;;;;;;;;5472401;25;20372;-67
2024/04/15 13:32:13;;;;;;;;;;;;;;;;;;5469983;25;19968;-66
2024/04/15 13:34:38;;;;;;;;;;;;;;;;;;5467602;25;19932;-67
2024/04/15 13:37:03;;;;;;;;;;;;;;;;;;5472940;26;19940;-67
2024/04/15 13:39:29;;;;;;;;;;;;;;;;;;5471613;26;19938;-68
2024/04/15 13:41:54;;;;;;;;;;;;;;;;;;5470913;26;19964;-67
2024/04/15 13:44:19;;;;;;;;;;;;;;;;;;5492558;25;20257;-67
2024/04/15 13:46:44;;;;;;;;;;;;;;;;;;5478137;26;19936;-67
2024/04/15 13:49:09;;;;;;;;;;;;;;;;;;5477909;25;19978;-66
2024/04/15 13:51:34;;;;;;;;;;;;;;;;;;5486427;25;19927;-67
2024/04/15 13:53:59;;;;;;;;;;;;;;;;;;5482938;25;20382;-67
2024/04/15 13:56:24;;;;;;;;;;;;;;;;;;5460243;26;19997;-67
2024/04/15 13:58:51;;;;;;;;;;;;;;;;;;5466636;25;19995;-67
2024/04/15 14:01:16;;;;;;;;;;;;;;;;;;5455242;25;19935;-67
2024/04/15 14:03:41;;;;;;;;;;;;;;;;;;5472670;26;19934;-67
2024/04/15 14:06:06;;;;;;;;;;;;;;;;;;5469504;25;19972;-67
2024/04/15 14:08:31;;;;;;;;;;;;;;;;;;5479396;25;20341;-67
2024/04/15 14:10:56;;;;;;;;;;;;;;;;;;5484482;26;20026;-67
2024/04/15 14:13:21;;;;;;;;;;;;;;;;;;5488701;25;19927;-66
2024/04/15 14:15:46;;;;;;;;;;;;;;;;;;5456052;25;19929;-67
2024/04/15 14:18:11;;;;;;;;;;;;;;;;;;5472006;26;19928;-67
2024/04/15 14:20:37;;;;;;;;;;;;;;;;;;5425064;26;19935;-67
2024/04/15 14:23:02;;;;;;;;;;;;;;;;;;5435542;26;20022;-65
2024/04/15 14:25:27;;;;;;;;;;;;;;;;;;5415934;26;20333;-65
2024/04/15 14:27:52;;;;;;;;;;;;;;;;;;5432155;26;20343;-66
2024/04/15 14:30:17;;;;;;;;;;;;;;;;;;5425405;26;19929;-65
2024/04/15 14:32:43;;;;;;;;;;;;;;;;;;5477260;25;19928;-65
2024/04/15 14:35:08;;;;;;;;;;;;;;;;;;5445912;25;20336;-66
2024/04/15 14:37:33;;;;;;;;;;;;;;;;;;5477293;25;19936;-66
2024/04/15 14:39:58;;;;;;;;;;;;;;;;;;5450880;26;19993;-65
2024/04/15 14:42:23;;;;;;;;;;;;;;;;;;5475985;25;20356;-65
2024/04/15 14:44:48;;;;;;;;;;;;;;;;;;5465452;26;19940;-65
2024/04/15 14:47:13;;;;;;;;;;;;;;;;;;5459571;26;19953;-65
2024/04/15 14:49:39;;;;;;;;;;;;;;;;;;5490888;25;19928;-65
2024/04/15 14:52:04;;;;;;;;;;;;;;;;;;5463177;26;20241;-65
2024/04/15 14:54:29;;;;;;;;;;;;;;;;;;5462538;25;20475;-65
2024/04/15 14:56:55;;;;;;;;;;;;;;;;;;5464847;26;19929;-65
2024/04/15 14:59:20;;;;;;;;;;;;;;;;;;5435938;26;19941;-65
2024/04/15 15:01:45;;;;;;;;;;;;;;;;;;5439671;26;19984;-65
2024/04/15 15:04:10;;;;;;;;;;;;;;;;;;5414149;26;19936;-65
2024/04/15 15:06:36;;;;;;;;;;;;;;;;;;5472718;26;20762;-65
2024/04/15 15:09:01;;;;;;;;;;;;;;;;;;5475807;25;19940;-64
2024/04/15 15:11:26;;;;;;;;;;;;;;;;;;5489026;25;20351;-65
2024/04/15 15:13:51;;;;;;;;;;;;;;;;;;5481133;25;19935;-64
2024/04/15 15:16:16;;;;;;;;;;;;;;;;;;5472186;25;20383;-64
2024/04/15 15:18:41;;;;;;;;;;;;;;;;;;5486307;25;19928;-65
2024/04/15 15:21:06;;;;;;;;;;;;;;;;;;5506319;25;20377;-64
2024/04/15 15:23:32;;;;;;;;;;;;;;;;;;5497754;25;19927;-64
2024/04/15 15:25:57;;;;;;;;;;;;;;;;;;5496497;25;20000;-64
2024/04/15 15:28:22;;;;;;;;;;;;;;;;;;5501509;25;19927;-65
2024/04/15 15:30:47;;;;;;;;;;;;;;;;;;5502142;25;20289;-65
2024/04/15 15:33:14;;;;;;;;;;;;;;;;;;5482114;25;19959;-64
2024/04/15 15:35:39;;;;;;;;;;;;;;;;;;5498857;25;20289;-64
2024/04/15 15:38:04;;;;;;;;;;;;;;;;;;5483281;25;20595;-65
2024/04/15 15:40:29;;;;;;;;;;;;;;;;;;5475673;25;19928;-65
2024/04/15 15:42:54;;;;;;;;;;;;;;;;;;5468097;25;20095;-66
2024/04/15 15:45:22;;;;;;;;;;;;;;;;;;5476313;25;20005;-66
2024/04/15 15:47:47;;;;;;;;;;;;;;;;;;5469923;25;19928;-65
2024/04/15 15:50:12;;;;;;;;;;;;;;;;;;5478155;25;19929;-66
2024/04/15 15:52:37;;;;;;;;;;;;;;;;;;5507911;26;19940;-66
2024/04/15 15:55:03;;;;;;;;;;;;;;;;;;5487046;25;20012;-66
2024/04/15 15:57:29;;;;;;;;;;;;;;;;;;5506434;25;20004;-66
2024/04/15 15:59:54;;;;;;;;;;;;;;;;;;5478977;25;20492;-66
2024/04/15 16:02:19;;;;;;;;;;;;;;;;;;5496180;25;20409;-66
2024/04/15 16:04:45;;;;;;;;;;;;;;;;;;5492587;25;19928;-66